Data for 06/06/2013

Time Sea-Level Adjusted Pressure Absolute Pressure Temperature Relative Humidity Dew Point   
(mb) (inHg) (mb) (inHg) (C) (F) (%) (C) (F)
00:05 1019 30.09 849 25.07 11.9 53.5 56 3.5 38.3
00:10 1020 30.12 849 25.07 11.9 53.4 56 3.6 38.5
00:15 1020 30.12 849 25.07 11.6 52.9 58 3.7 38.7
00:20 1020 30.12 849 25.07 11.3 52.4 59 3.7 38.7
00:25 1020 30.12 849 25.07 11.1 51.9 60 3.7 38.6
00:30 1020 30.12 849 25.07 11 51.7 60 3.6 38.5
00:35 1020 30.12 849 25.07 10.9 51.6 61 3.7 38.6
00:40 1020 30.12 849 25.07 10.8 51.4 61 3.5 38.4
00:45 1020 30.12 849 25.07 10.8 51.4 60 3.5 38.3
00:50 1020 30.12 849 25.07 10.8 51.5 60 3.5 38.3
00:55 1020 30.12 849 25.07 10.9 51.6 60 3.4 38.1
01:00 1020 30.12 849 25.07 11 51.7 59 3.2 37.8
01:05 1020 30.12 849 25.07 11.1 52 59 3.3 38
01:10 1020 30.12 849 25.07 11.1 52.1 59 3.5 38.3
01:15 1020 30.12 849 25.07 11 51.9 59 3.4 38.2
01:20 1020 30.12 849 25.07 11.1 51.9 58 3.2 37.8
01:25 1020 30.12 849 25.07 11.3 52.4 57 3.2 37.7
01:30 1020 30.12 849 25.07 11.5 52.7 57 3.2 37.8
01:35 1020 30.12 849 25.07 11.5 52.6 57 3.4 38.1
01:40 1020 30.12 849 25.07 11.3 52.3 59 3.5 38.3
01:45 1020 30.12 849 25.07 11.1 51.9 59 3.4 38.2
01:50 1020 30.12 849 25.07 11.1 52 57 3 37.4
01:55 1020 30.12 849 25.07 11.3 52.3 60 3.8 38.8
02:00 1020 30.12 849 25.07 10.9 51.5 61 3.6 38.5
02:05 1020 30.12 849 25.07 10.5 50.9 62 3.5 38.3
02:10 1020 30.12 849 25.07 10.6 51.1 61 3.4 38.1
02:15 1020 30.12 849 25.07 10.4 50.8 62 3.6 38.4
02:20 1020 30.12 849 25.07 10.3 50.5 63 3.6 38.6
02:25 1020 30.12 849 25.07 10 49.9 64 3.4 38.2
02:30 1020 30.12 849 25.07 10.3 50.5 61 3.1 37.5
02:35 1020 30.12 849 25.07 10.5 50.8 62 3.6 38.5
02:40 1020 30.12 849 25.07 10.1 50.2 63 3.5 38.3
02:45 1020 30.12 849 25.07 9.9 49.8 64 3.5 38.3
02:50 1020 30.12 849 25.07 9.9 49.7 64 3.4 38.1
02:55 1020 30.12 849 25.07 9.9 49.9 62 3.1 37.6
03:00 1020 30.12 849 25.07 10.1 50.2 62 3.1 37.6
03:05 1020 30.12 849 25.07 10.2 50.3 62 3.3 38
03:10 1020 30.12 849 25.07 10.1 50.2 62 3.1 37.6
03:15 1020 30.12 849 25.07 10.2 50.4 61 3.2 37.7
03:20 1020 30.12 850 25.1 10.3 50.6 61 3.2 37.8
03:25 1020 30.12 850 25.1 10.2 50.4 63 3.4 38.2
03:30 1020 30.12 850 25.1 9.8 49.6 65 3.5 38.3
03:35 1020 30.12 850 25.1 9.6 49.2 65 3.3 38
03:40 1020 30.12 850 25.1 9.5 49.2 65 3.4 38.1
03:45 1021 30.15 850 25.1 9.3 48.8 66 3.4 38.2
03:50 1021 30.15 850 25.1 9.2 48.5 68 3.5 38.3
03:55 1021 30.15 850 25.1 9 48.2 67 3.3 37.9
04:00 1021 30.15 850 25.1 9.1 48.4 67 3.3 37.9
04:05 1021 30.15 850 25.1 9.2 48.6 66 3.3 38
04:10 1021 30.15 850 25.1 9.3 48.8 65 3.1 37.6
04:15 1021 30.15 850 25.1 9.6 49.3 64 3.2 37.7
04:20 1021 30.15 850 25.1 9.7 49.4 64 3.3 37.9
04:25 1021 30.15 850 25.1 9.3 48.7 67 3.4 38.1
04:30 1021 30.15 850 25.1 9 48.3 67 3.4 38
04:35 1021 30.15 850 25.1 9 48.1 68 3.3 38
04:40 1021 30.15 850 25.1 9.1 48.3 66 3.1 37.6
04:45 1021 30.15 850 25.1 9.2 48.6 66 3.2 37.8
04:50 1021 30.15 850 25.1 8.8 47.9 69 3.6 38.4
04:55 1021 30.15 850 25.1 8.5 47.3 70 3.3 37.9
05:00 1021 30.15 850 25.1 8.7 47.6 68 3 37.4
05:05 1021 30.15 850 25.1 9.1 48.4 67 3.4 38
05:10 1021 30.15 850 25.1 9.3 48.7 65 3.1 37.6
05:15 1021 30.15 850 25.1 9.8 49.7 64 3.3 37.9
05:20 1021 30.15 850 25.1 10 49.9 64 3.4 38.2
05:25 1021 30.15 850 25.1 10 49.9 65 3.6 38.5
05:30 1021 30.15 850 25.1 9.6 49.2 66 3.6 38.4
05:35 1021 30.15 850 25.1 9.6 49.3 65 3.4 38.1
05:40 1021 30.15 850 25.1 9.9 49.9 64 3.4 38.2
05:45 1021 30.15 850 25.1 10.1 50.1 64 3.6 38.5
05:50 1021 30.15 850 25.1 10.1 50.2 64 3.6 38.5
05:55 1021 30.15 850 25.1 10.2 50.4 63 3.5 38.4
06:00 1021 30.15 850 25.1 10.4 50.7 64 3.8 38.9
06:05 1021 30.15 851 25.13 10.5 51 63 3.8 38.9
06:10 1021 30.15 850 25.1 10.9 51.5 62 3.9 39.1
06:15 1021 30.15 851 25.13 11 51.7 62 4.1 39.3
06:20 1021 30.15 851 25.13 11.2 52.1 62 4.1 39.4
06:25 1021 30.15 851 25.13 11.3 52.4 61 4.2 39.5
06:30 1021 30.15 851 25.13 11.4 52.4 62 4.3 39.8
06:35 1021 30.15 851 25.13 11.7 53 61 4.5 40.1
06:40 1021 30.15 851 25.13 11.8 53.3 61 4.7 40.4
06:45 1021 30.15 851 25.13 12.1 53.7 59 4.4 40
06:50 1021 30.15 851 25.13 12.6 54.6 58 4.7 40.4
06:55 1022 30.18 851 25.13 13.2 55.8 56 4.8 40.6
07:00 1022 30.18 851 25.13 13.9 57 53 4.5 40.1
07:05 1022 30.18 851 25.13 14.2 57.6 53 5 40.9
07:10 1021 30.15 851 25.13 14.7 58.5 52 4.9 40.9
07:15 1021 30.15 851 25.13 15.2 59.4 52 5.5 41.8
07:20 1021 30.15 851 25.13 15.3 59.6 51 5.2 41.3
07:25 1021 30.15 851 25.13 15.6 60.2 51 5.8 42.4
07:30 1021 30.15 851 25.13 15.6 60.1 50 5.2 41.4
07:35 1021 30.15 851 25.13 15.6 60 49 5 41
07:40 1021 30.15 851 25.13 15.9 60.5 50 5.7 42.2
07:45 1021 30.15 851 25.13 16.4 61.6 49 5.7 42.2
07:50 1022 30.18 851 25.13 17.1 62.9 50 6.7 44
07:55 1021 30.15 851 25.13 16.5 61.7 50 6.2 43.2
08:00 1022 30.18 851 25.13 16.6 61.9 50 6.2 43.1
08:05 1022 30.18 851 25.13 16.5 61.6 50 6 42.8
08:10 1022 30.18 851 25.13 16.5 61.8 50 6.1 42.9
08:15 1022 30.18 851 25.13 16.5 61.7 49 5.7 42.3
08:20 1022 30.18 851 25.13 16.7 62 49 5.9 42.6
08:25 1022 30.18 851 25.13 16.6 61.8 49 6.1 42.9
08:30 1022 30.18 851 25.13 16.6 61.9 50 6.3 43.3
08:35 1022 30.18 851 25.13 16.6 61.9 48 5.6 42
08:40 1022 30.18 851 25.13 16.9 62.3 49 6.2 43.1
08:45 1022 30.18 851 25.13 17.2 63 46 5.6 42.2
08:50 1022 30.18 851 25.13 18 64.4 43 5.3 41.6
08:55 1022 30.18 851 25.13 18.4 65.2 43 5.9 42.6
09:00 1022 30.18 851 25.13 18.8 65.8 40 5 41.1
09:05 1022 30.18 851 25.13 19.2 66.5 42 6 42.8
09:10 1022 30.18 851 25.13 18.5 65.3 41 4.9 40.9
09:15 1022 30.18 851 25.13 18.6 65.5 39 4.6 40.2
09:20 1022 30.18 851 25.13 19.2 66.5 36 3.7 38.6
09:25 1022 30.18 851 25.13 19.7 67.4 37 4.5 40.2
09:30 1022 30.18 851 25.13 19.7 67.4 35 3.8 38.8
09:35 1022 30.18 851 25.13 19.7 67.4 33 3.1 37.5
09:40 1022 30.18 851 25.13 19.8 67.6 32 2.8 37
09:45 1022 30.18 851 25.13 20.1 68.2 32 3.1 37.6
09:50 1022 30.18 851 25.13 20 68 32 3.1 37.7
09:55 1022 30.18 851 25.13 19.6 67.3 32 2.9 37.1
10:00 1022 30.18 851 25.13 20 68 31 2.5 36.5
10:05 1022 30.18 851 25.13 20.8 69.5 31 3.1 37.6
10:10 1022 30.18 851 25.13 20.7 69.2 30 2.7 36.8
10:15 1022 30.18 851 25.13 20.7 69.2 31 3 37.4
10:20 1022 30.18 851 25.13 20.9 69.7 31 3.2 37.7
10:25 1022 30.18 851 25.13 20.8 69.4 30 2.7 36.9
10:30 1022 30.18 851 25.13 20.4 68.7 32 3.2 37.7
10:35 1022 30.18 851 25.13 20.7 69.3 30 2.8 37.1
10:40 1021 30.15 851 25.13 20.9 69.7 31 3.1 37.7
10:45 1021 30.15 851 25.13 20.8 69.4 31 3 37.5
10:50 1021 30.15 851 25.13 20.3 68.6 32 3.3 38
10:55 1021 30.15 851 25.13 19.9 67.9 31 2.7 36.8
11:00 1021 30.15 851 25.13 21.2 70.2 31 3.4 38.2
11:05 1022 30.18 851 25.13 20.5 68.8 32 3.4 38.1
11:10 1022 30.18 851 25.13 21.1 70 31 3.3 38
11:15 1022 30.18 851 25.13 21.8 71.2 30 3.4 38.1
11:20 1022 30.18 851 25.13 20.9 69.6 31 3.5 38.3
11:25 1022 30.18 851 25.13 20.7 69.3 31 3.2 37.7
11:30 1022 30.18 851 25.13 21.5 70.7 30 3.6 38.5
11:35 1022 30.18 851 25.13 22.1 71.8 28 2.8 37
11:40 1022 30.18 851 25.13 22.9 73.3 27 3.3 37.9
11:45 1022 30.18 851 25.13 23.5 74.3 23 1.5 34.6
11:50 1021 30.15 851 25.13 22.6 72.8 26 2.3 36.1
11:55 1021 30.15 851 25.13 22 71.5 27 2.3 36.1
12:00 1021 30.15 851 25.13 22.4 72.3 26 2.4 36.3
12:05 1021 30.15 850 25.1 22.3 72.2 25 1.5 34.7
12:10 1021 30.15 850 25.1 22.5 72.5 24 1.2 34.1
12:15 1021 30.15 850 25.1 22 71.6 26 2 35.7
12:20 1021 30.15 850 25.1 21.4 70.6 27 1.6 34.9
12:25 1021 30.15 850 25.1 22.3 72.1 25 1.7 35.1
12:30 1021 30.15 850 25.1 22.8 73.1 25 2.2 35.9
12:35 1021 30.15 850 25.1 21.7 71 25 0.9 33.7
12:40 1021 30.15 850 25.1 21.8 71.2 25 1.1 34
12:45 1021 30.15 850 25.1 22.7 72.9 23 0.5 32.9
12:50 1021 30.15 850 25.1 23.3 73.9 22 0.5 32.8
12:55 1021 30.15 850 25.1 23.3 73.9 21 -0.2 31.7
13:00 1021 30.15 850 25.1 23.2 73.8 23 1.1 33.9
13:05 1021 30.15 850 25.1 23 73.4 23 0.9 33.6
13:10 1021 30.15 850 25.1 23.2 73.7 22 0.6 33.1
13:15 1021 30.15 850 25.1 23.4 74.1 20 -0.4 31.3
13:20 1021 30.15 850 25.1 23.6 74.5 19 -0.8 30.5
13:25 1021 30.15 850 25.1 23.3 74 21 0.3 32.6
13:30 1021 30.15 850 25.1 23.6 74.4 21 -0 32
13:35 1021 30.15 850 25.1 23.4 74.1 22 0.6 33.1
13:40 1021 30.15 850 25.1 23.3 73.9 23 1.1 34
13:45 1021 30.15 850 25.1 22.4 72.3 22 -0.1 31.9
13:50 1020 30.12 850 25.1 22.3 72.2 23 0.5 32.9
13:55 1020 30.12 850 25.1 23.2 73.7 22 0.3 32.5
14:00 1020 30.12 850 25.1 23.4 74 23 1.1 34.1
14:05 1020 30.12 850 25.1 24.1 75.4 21 0.4 32.8
14:10 1020 30.12 850 25.1 24.2 75.5 21 0.7 33.3
14:15 1020 30.12 850 25.1 23.8 74.8 22 0.8 33.4
14:20 1020 30.12 850 25.1 24.1 75.4 21 0.8 33.4
14:25 1020 30.12 849 25.07 24.3 75.8 20 0.3 32.5
14:30 1020 30.12 849 25.07 24.1 75.3 20 0 32.1
14:35 1020 30.12 849 25.07 24.2 75.6 22 1.7 35
14:40 1020 30.12 849 25.07 24.4 75.9 21 0.8 33.5
14:45 1020 30.12 849 25.07 24.2 75.6 23 2 35.7
14:50 1020 30.12 849 25.07 24.6 76.3 23 2.3 36.1
14:55 1020 30.12 849 25.07 24.4 75.8 22 1.3 34.3
15:00 1020 30.12 849 25.07 24.2 75.6 22 1.2 34.1
15:05 1020 30.12 849 25.07 24.1 75.4 22 1.6 34.8
15:10 1020 30.12 849 25.07 24.6 76.4 21 1.1 33.9
15:15 1020 30.12 849 25.07 24.9 76.8 21 1.3 34.4
15:20 1020 30.12 849 25.07 24.9 76.9 21 1.4 34.6
15:25 1020 30.12 849 25.07 24.6 76.3 22 1.7 35.1
15:30 1020 30.12 849 25.07 24.7 76.5 22 1.5 34.7
15:35 1020 30.12 849 25.07 24.4 75.8 24 2.5 36.5
15:40 1020 30.12 849 25.07 23 73.4 25 2.2 35.9
15:45 1020 30.12 849 25.07 22.6 72.7 26 2.3 36.1
15:50 1020 30.12 849 25.07 22.6 72.7 25 1.5 34.8
15:55 1020 30.12 849 25.07 23.5 74.3 23 1.7 35
16:00 1020 30.12 849 25.07 24.2 75.5 23 1.9 35.4
16:05 1020 30.12 849 25.07 24.2 75.5 22 1.2 34.2
16:10 1019 30.09 849 25.07 25.3 77.5 21 1.6 34.8
16:15 1019 30.09 849 25.07 23.9 75 23 2 35.5
16:20 1019 30.09 849 25.07 24 75.3 23 1.6 34.9
16:25 1019 30.09 849 25.07 24.9 76.9 23 2.5 36.5
16:30 1019 30.09 849 25.07 24 75.3 24 2.6 36.6
16:35 1019 30.09 849 25.07 23.7 74.6 24 2 35.6
16:40 1019 30.09 849 25.07 23.8 74.8 23 1.9 35.3
16:45 1019 30.09 849 25.07 23.3 73.9 24 2 35.6
16:50 1019 30.09 849 25.07 23.8 74.8 22 0.8 33.5
16:55 1019 30.09 849 25.07 23.6 74.6 23 1.5 34.7
17:00 1019 30.09 848 25.04 23.1 73.6 24 1.4 34.5
17:05 1019 30.09 848 25.04 23.3 74 23 1.4 34.5
17:10 1019 30.09 848 25.04 23.3 73.9 24 1.6 35
17:15 1019 30.09 848 25.04 23.9 75 23 1.6 34.8
17:20 1019 30.09 848 25.04 24.3 75.8 22 1.6 34.8
17:25 1019 30.09 848 25.04 24.4 76 21 1.1 34
17:30 1019 30.09 848 25.04 24.5 76.1 21 1.1 33.9
17:35 1019 30.09 848 25.04 24.6 76.3 22 1.4 34.6
17:40 1019 30.09 848 25.04 23.8 74.9 22 1.3 34.4
17:45 1019 30.09 848 25.04 23.8 74.8 24 1.9 35.5
17:50 1019 30.09 848 25.04 24 75.2 22 1.1 34
17:55 1019 30.09 848 25.04 23.2 73.8 23 1.3 34.3
18:00 1019 30.09 848 25.04 23.1 73.6 23 0.8 33.4
18:05 1019 30.09 848 25.04 23.8 74.9 22 1 33.9
18:10 1019 30.09 848 25.04 24.2 75.5 22 1.5 34.8
18:15 1019 30.09 848 25.04 24.2 75.6 23 2 35.7
18:20 1019 30.09 848 25.04 24.3 75.7 22 1.3 34.3
18:25 1019 30.09 848 25.04 23.3 73.9 24 1.7 35.1
18:30 1019 30.09 848 25.04 23 73.4 23 0.7 33.2
18:35 1019 30.09 848 25.04 22.8 73 24 1.2 34.2
18:40 1019 30.09 848 25.04 22.6 72.7 24 1.1 34
18:45 1019 30.09 848 25.04 22.4 72.3 25 1.4 34.5
18:50 1019 30.09 848 25.04 22.3 72.2 25 1.5 34.7
18:55 1019 30.09 848 25.04 22.4 72.4 25 1.4 34.5
19:00 1019 30.09 848 25.04 22.5 72.4 25 1.4 34.5
19:05 1019 30.09 848 25.04 22.3 72.2 26 1.9 35.4
19:10 1019 30.09 848 25.04 22.2 72 26 1.8 35.2
19:15 1019 30.09 848 25.04 22.2 72 26 1.9 35.5
19:20 1019 30.09 848 25.04 22.1 71.7 28 2.8 37
19:25 1019 30.09 848 25.04 22 71.6 27 2.3 36.1
19:30 1019 30.09 848 25.04 21.6 70.8 35 5.5 41.9
19:35 1019 30.09 848 25.04 20.9 69.6 38 6 42.9
19:40 1019 30.09 848 25.04 20.4 68.8 39 6.1 42.9
19:45 1019 30.09 848 25.04 20.2 68.3 40 6.3 43.3
19:50 1019 30.09 848 25.04 19.8 67.7 41 6.3 43.4
19:55 1019 30.09 848 25.04 19.6 67.3 42 6.5 43.7
20:00 1019 30.09 848 25.04 19.4 66.9 42 6.4 43.5
20:05 1019 30.09 848 25.04 19.1 66.4 44 6.8 44.2
20:10 1019 30.09 848 25.04 18.8 65.8 45 6.6 43.8
20:15 1019 30.09 848 25.04 18.7 65.6 45 6.6 43.8
20:20 1019 30.09 848 25.04 18.6 65.4 45 6.5 43.6
20:25 1019 30.09 848 25.04 18.4 65.2 46 6.6 43.9
20:30 1019 30.09 848 25.04 18.2 64.7 48 7 44.6
20:35 1019 30.09 848 25.04 17.7 63.9 47 6.5 43.8
20:40 1019 30.09 848 25.04 17.7 63.9 46 6.2 43.1
20:45 1019 30.09 848 25.04 17.5 63.5 47 6.3 43.3
20:50 1019 30.09 848 25.04 17.2 62.9 49 6.5 43.8
20:55 1019 30.09 848 25.04 16.8 62.3 50 6.5 43.7
21:00 1019 30.09 848 25.04 16.8 62.2 50 6.5 43.7
21:05 1019 30.09 848 25.04 16.7 62.1 50 6.5 43.6
21:10 1019 30.09 848 25.04 16.9 62.3 49 6.2 43.2
21:15 1019 30.09 848 25.04 17.2 62.9 47 6 42.8
21:20 1019 30.09 848 25.04 17.3 63.2 47 5.9 42.7
21:25 1019 30.09 848 25.04 17.3 63.2 47 6 42.7
21:30 1019 30.09 848 25.04 17.2 63 46 5.8 42.4
21:35 1019 30.09 848 25.04 17.4 63.3 45 5.6 42.1
21:40 1019 30.09 848 25.04 17.7 63.8 44 5.5 42
21:45 1019 30.09 848 25.04 17.7 63.9 45 5.8 42.5
21:50 1019 30.09 848 25.04 17.6 63.6 46 5.8 42.5
21:55 1019 30.09 848 25.04 17.3 63.1 48 6.2 43.1
22:00 1019 30.09 848 25.04 16.8 62.2 49 6.2 43.1
22:05 1019 30.09 848 25.04 16.5 61.7 51 6.3 43.4
22:10 1019 30.09 848 25.04 16.4 61.6 51 6.3 43.4
22:15 1019 30.09 848 25.04 16.7 62.1 50 6.5 43.6
22:20 1019 30.09 848 25.04 16.8 62.2 51 6.7 44.1
22:25 1019 30.09 848 25.04 16.8 62.2 52 6.8 44.3
22:30 1019 30.09 848 25.04 16.6 61.9 52 7 44.5
22:35 1019 30.09 848 25.04 16.4 61.6 54 7.1 44.7
22:40 1019 30.09 848 25.04 16.4 61.4 54 7.1 44.8
22:45 1019 30.09 848 25.04 16.3 61.4 55 7.3 45.1
22:50 1019 30.09 848 25.04 16.3 61.3 55 7.3 45.1
22:55 1019 30.09 848 25.04 16.2 61.2 55 7.4 45.2
23:00 1019 30.09 848 25.04 16.1 61 56 7.5 45.5
23:05 1019 30.09 848 25.04 16 60.8 57 7.6 45.6
23:10 1019 30.09 848 25.04 16 60.7 58 7.7 45.9
23:15 1019 30.09 848 25.04 15.9 60.6 59 7.8 46.1
23:20 1019 30.09 848 25.04 15.9 60.6 59 8 46.4
23:25 1019 30.09 848 25.04 15.7 60.3 60 8 46.4
23:30 1019 30.09 848 25.04 15.6 60.1 61 8.2 46.7
23:35 1019 30.09 848 25.04 15.5 59.9 61 8 46.4
23:40 1019 30.09 848 25.04 15.3 59.5 62 8.1 46.5
23:45 1019 30.09 848 25.04 15.2 59.3 62 8.1 46.6
23:50 1019 30.09 848 25.04 15.2 59.4 62 8.2 46.7
23:55 1019 30.09 848 25.04 15.1 59.2 63 8.2 46.7
24:00 1019 30.09 848 25.04 15.1 59.1 63 8.1 46.6